Time;durP1;ratioP1;P1;durP2;ratioP2;P2;SDS_P1;SDS_P2;PMS_P1;PMS_P2;Temp;Humidity;BMP_temperature;BMP_pressure;BME280_temperature;BME280_humidity;BME280_pressure;Samples;Min_cycle;Max_cycle;Signal;HPM_P1;HPM_P2
2022/11/21 00:44:49;;;;;;;8.73;1.93;;;12.00;81.40;;;;;;4989866;28;20222;-95
2022/11/21 00:54:28;;;;;;;5.50;2.40;;;12.00;81.60;;;;;;4938029;29;20224;-96
2022/11/21 01:04:00;;;;;;;9.47;2.40;;;11.90;81.80;;;;;;4933463;29;20228;-95
2022/11/21 01:19:56;;;;;;;7.50;2.80;;;12.00;82.10;;;;;;4919435;29;20368;-95
2022/11/21 01:22:47;;;;;;;10.17;2.43;;;12.00;82.20;;;;;;4928744;29;20227;-96
2022/11/21 01:25:50;;;;;;;8.67;2.97;;;12.10;82.50;;;;;;4941540;28;20219;-95
2022/11/21 04:08:05;;;;;;;10.57;2.67;;;10.60;82.20;;;;;;4928773;29;20271;-95
2022/11/21 04:23:36;;;;;;;6.83;2.07;;;10.40;82.30;;;;;;5206273;23;20232;-96
2022/11/21 04:30:23;;;;;;;9.67;2.67;;;10.40;82.70;;;;;;4995477;28;20209;-95
2022/11/21 04:33:54;;;;;;;;;;;;;;;;;;;;;
2022/11/21 04:43:42;;;;;;;5.77;2.27;;;10.20;83.30;;;;;;4920075;29;20232;-96
2022/11/21 04:46:58;;;;;;;7.20;2.87;;;10.10;82.50;;;;;;4976272;28;20202;-96
2022/11/21 04:59:54;;;;;;;8.27;2.60;;;9.90;83.40;;;;;;4990198;28;20233;-95
2022/11/21 05:05:47;;;;;;;8.30;2.27;;;9.90;83.20;;;;;;4965775;28;20195;-95
2022/11/21 05:08:56;;;;;;;12.93;4.07;;;9.80;83.30;;;;;;4981207;28;20302;-96
2022/11/21 05:14:58;;;;;;;9.03;2.43;;;9.80;83.40;;;;;;4972675;28;20205;-95
2022/11/21 05:17:59;;;;;;;9.30;2.93;;;9.70;83.40;;;;;;4975143;28;20208;-96
2022/11/21 05:29:37;;;;;;;8.27;3.10;;;9.50;83.30;;;;;;4976054;28;20223;-94
2022/11/21 05:32:20;;;;;;;9.27;2.63;;;9.50;83.60;;;;;;4994890;28;20209;-95
2022/11/21 05:35:41;;;;;;;;;;;;;;;;;;;;;
2022/11/21 05:56:00;;;;;;;8.77;2.80;;;9.20;84.10;;;;;;4986814;28;20217;-96
2022/11/21 06:16:32;;;;;;;7.60;2.53;;;8.90;85.10;;;;;;4909334;29;20223;-95
2022/11/21 06:21:55;;;;;;;3.97;1.90;;;8.80;85.00;;;;;;4987734;28;20210;-95
2022/11/21 06:28:04;;;;;;;20.77;5.73;;;8.70;85.30;;;;;;4979519;28;20202;-94
2022/11/21 06:30:50;;;;;;;12.43;4.07;;;8.80;85.40;;;;;;4993373;28;20305;-94
2022/11/21 06:36:49;;;;;;;12.27;3.93;;;8.70;85.20;;;;;;4931728;29;20209;-95
2022/11/21 06:39:41;;;;;;;9.60;2.80;;;8.60;85.20;;;;;;4982308;28;20221;-95
2022/11/21 06:46:02;;;;;;;12.23;3.63;;;8.60;85.60;;;;;;4974571;28;20213;-95
2022/11/21 06:49:00;;;;;;;13.40;3.97;;;8.50;85.80;;;;;;4988871;28;20224;-95
2022/11/21 06:51:54;;;;;;;11.47;3.80;;;8.50;85.80;;;;;;4978629;28;20204;-95
2022/11/21 06:54:37;;;;;;;14.10;3.63;;;8.50;85.80;;;;;;4981702;28;20207;-95
2022/11/21 07:00:04;;;;;;;5.83;2.07;;;8.40;86.30;;;;;;5241560;23;20247;-96
2022/11/21 07:02:35;;;;;;;9.57;3.87;;;8.40;86.60;;;;;;4976714;28;20202;-95
2022/11/21 07:05:10;;;;;;;11.03;3.93;;;8.40;86.40;;;;;;4972686;28;20207;-94
2022/11/21 07:07:42;;;;;;;15.60;5.80;;;8.40;86.60;;;;;;4971898;28;20214;-94
2022/11/21 07:10:11;;;;;;;11.87;3.93;;;8.40;86.70;;;;;;4962185;28;20223;-94
2022/11/21 07:15:34;;;;;;;15.47;4.80;;;8.30;86.50;;;;;;4931982;29;20250;-94
2022/11/21 07:18:02;;;;;;;9.37;3.73;;;8.30;86.50;;;;;;4962897;28;20250;-94
2022/11/21 07:20:32;;;;;;;13.37;4.10;;;8.30;86.50;;;;;;4972403;28;20266;-93
2022/11/21 07:23:03;;;;;;;11.47;4.10;;;8.20;86.40;;;;;;4967777;28;20662;-93
2022/11/21 07:25:38;;;;;;;10.47;4.03;;;8.20;86.50;;;;;;4975882;28;20233;-93
2022/11/21 07:28:06;;;;;;;10.83;3.93;;;8.20;86.90;;;;;;4977357;28;20212;-94
2022/11/21 07:30:33;;;;;;;14.27;5.10;;;8.20;87.00;;;;;;4976279;28;20211;-94
2022/11/21 07:33:05;;;;;;;10.57;4.30;;;8.20;87.00;;;;;;4969894;28;20972;-95
2022/11/21 07:35:41;;;;;;;14.27;4.80;;;8.20;87.00;;;;;;4976221;28;20201;-94
2022/11/21 07:38:10;;;;;;;8.87;3.60;;;8.10;87.50;;;;;;4976100;28;20216;-95
2022/11/21 07:40:38;;;;;;;10.77;3.90;;;8.10;87.60;;;;;;4968120;28;20621;-94
2022/11/21 07:43:08;;;;;;;13.47;4.27;;;8.10;87.60;;;;;;4975176;28;20234;-94
2022/11/21 07:45:39;;;;;;;12.17;3.50;;;8.10;87.80;;;;;;4964491;28;20229;-94
2022/11/21 07:48:14;;;;;;;13.07;4.70;;;8.10;88.10;;;;;;4980913;28;20219;-93
2022/11/21 07:50:46;;;;;;;14.13;4.93;;;8.10;88.30;;;;;;4974659;28;20200;-93
2022/11/21 07:53:14;;;;;;;18.37;5.63;;;8.10;88.20;;;;;;4978650;28;20252;-93
2022/11/21 07:55:45;;;;;;;12.00;4.47;;;8.10;88.20;;;;;;4977679;28;20210;-94
2022/11/21 07:58:15;;;;;;;14.77;5.40;;;8.10;88.10;;;;;;4975489;28;20205;-94
2022/11/21 08:00:43;;;;;;;18.77;4.90;;;8.10;88.60;;;;;;4976469;28;20237;-94
2022/11/21 08:03:12;;;;;;;11.33;4.50;;;8.10;88.50;;;;;;4976648;28;20721;-94
2022/11/21 08:05:41;;;;;;;14.20;5.30;;;8.10;89.00;;;;;;4975898;28;20209;-94
2022/11/21 08:08:12;;;;;;;13.77;5.80;;;8.10;89.00;;;;;;4977523;28;20216;-93
2022/11/21 08:10:42;;;;;;;16.63;6.17;;;8.20;89.40;;;;;;4961542;28;20208;-93
2022/11/21 08:13:10;;;;;;;11.77;4.40;;;8.20;89.50;;;;;;4969179;28;20615;-93
2022/11/21 08:15:37;;;;;;;23.87;6.13;;;8.20;89.40;;;;;;4975289;28;20631;-93
2022/11/21 08:18:09;;;;;;;15.93;5.33;;;8.20;89.80;;;;;;4973813;28;20203;-93
2022/11/21 08:20:37;;;;;;;10.40;4.10;;;8.20;90.10;;;;;;4958811;28;20233;-93
2022/11/21 08:23:06;;;;;;;19.30;6.67;;;8.20;89.90;;;;;;4972400;28;20217;-93
2022/11/21 08:25:37;;;;;;;20.37;5.27;;;8.20;89.90;;;;;;4972260;28;20704;-93
2022/11/21 08:28:06;;;;;;;14.70;4.80;;;8.30;90.40;;;;;;4975410;28;20237;-93
2022/11/21 08:30:34;;;;;;;11.27;3.80;;;8.30;90.00;;;;;;4976146;28;20220;-93
2022/11/21 08:33:01;;;;;;;12.10;3.97;;;8.30;90.00;;;;;;4976138;28;20211;-93
2022/11/21 08:35:30;;;;;;;9.80;4.20;;;8.40;89.80;;;;;;4980686;28;20266;-92
2022/11/21 08:38:10;;;;;;;5.90;2.80;;;8.40;89.90;;;;;;4982079;28;20258;-93
2022/11/21 08:40:40;;;;;;;14.37;3.87;;;8.40;90.10;;;;;;4989016;28;20239;-93
2022/11/21 08:43:13;;;;;;;10.87;3.80;;;8.40;90.00;;;;;;4996102;28;20240;-93
2022/11/21 08:45:40;;;;;;;12.60;4.13;;;8.40;90.00;;;;;;4997222;28;20192;-93
2022/11/21 08:48:16;;;;;;;11.37;4.20;;;8.50;89.80;;;;;;4990579;28;20210;-92
2022/11/21 08:50:45;;;;;;;17.33;4.83;;;8.50;90.00;;;;;;4972096;28;20316;-92
2022/11/21 08:53:15;;;;;;;13.13;4.17;;;8.50;90.10;;;;;;4989780;28;20224;-93
2022/11/21 08:55:53;;;;;;;13.40;4.30;;;8.50;90.20;;;;;;4986676;28;20225;-93
2022/11/21 08:58:25;;;;;;;12.00;4.30;;;8.50;90.20;;;;;;4967785;28;20274;-93
2022/11/21 09:00:55;;;;;;;13.57;4.70;;;8.60;90.30;;;;;;4967100;28;20246;-92
2022/11/21 09:03:23;;;;;;;13.73;4.93;;;8.60;90.40;;;;;;4987144;28;20202;-94
2022/11/21 09:05:50;;;;;;;9.40;3.50;;;8.70;90.40;;;;;;4989139;28;20230;-93
2022/11/21 09:08:17;;;;;;;14.67;4.40;;;8.70;90.50;;;;;;4989348;28;20259;-94
2022/11/21 09:10:45;;;;;;;12.40;3.63;;;8.80;90.50;;;;;;4991028;28;20677;-94
2022/11/21 09:13:17;;;;;;;12.60;4.23;;;8.80;90.50;;;;;;4977276;28;20215;-95
2022/11/21 09:18:31;;;;;;;14.03;4.83;;;8.90;90.80;;;;;;4970825;28;20206;-95
2022/11/21 09:21:00;;;;;;;6.87;3.00;;;9.00;90.60;;;;;;4985723;28;20687;-93
2022/11/21 09:23:32;;;;;;;11.00;3.83;;;9.00;90.60;;;;;;4991846;28;20188;-93
2022/11/21 09:26:05;;;;;;;8.37;3.43;;;9.00;90.80;;;;;;4973093;29;20209;-94
2022/11/21 09:28:34;;;;;;;13.83;4.03;;;9.10;90.90;;;;;;4981416;28;20217;-93
2022/11/21 09:31:07;;;;;;;15.40;4.30;;;9.20;90.90;;;;;;4980620;28;20206;-93
2022/11/21 09:33:35;;;;;;;16.43;5.30;;;9.20;90.90;;;;;;4963646;28;20648;-94
2022/11/21 09:36:03;;;;;;;13.07;4.13;;;9.30;90.80;;;;;;4978408;28;20784;-94
2022/11/21 09:38:32;;;;;;;16.30;4.93;;;9.30;90.60;;;;;;4974941;28;20211;-94
2022/11/21 09:41:50;;;;;;;9.93;3.33;;;9.40;90.60;;;;;;4960189;29;20218;-93
2022/11/21 09:44:14;;;;;;;10.33;5.27;;;9.40;90.60;;;;;;4974481;28;20302;-94
2022/11/21 09:46:47;;;;;;;8.97;3.77;;;9.40;91.00;;;;;;4979267;28;20216;-93
2022/11/21 09:49:25;;;;;;;18.27;5.93;;;9.40;90.70;;;;;;4978284;28;20272;-94
2022/11/21 09:51:53;;;;;;;12.33;4.27;;;9.50;90.90;;;;;;4979462;28;20206;-93
2022/11/21 09:54:26;;;;;;;14.67;4.90;;;9.60;90.90;;;;;;4975628;28;20225;-93
2022/11/21 09:56:58;;;;;;;16.23;5.30;;;9.60;90.80;;;;;;4976056;28;20213;-94
2022/11/21 09:59:35;;;;;;;11.40;4.43;;;9.70;90.70;;;;;;4977146;28;20576;-93
2022/11/21 10:02:03;;;;;;;13.80;4.40;;;9.70;90.90;;;;;;4978561;28;20288;-93
2022/11/21 10:04:31;;;;;;;10.17;4.30;;;9.70;90.90;;;;;;4977137;28;20695;-92
2022/11/21 10:07:05;;;;;;;14.07;4.10;;;9.70;90.90;;;;;;4974777;28;20213;-93
2022/11/21 10:09:44;;;;;;;13.37;4.60;;;9.80;91.10;;;;;;4967524;28;20206;-93
2022/11/21 10:12:41;;;;;;;17.00;4.90;;;9.80;91.20;;;;;;4977430;28;20216;-93
2022/11/21 10:15:37;;;;;;;11.53;4.33;;;9.90;91.30;;;;;;4976060;28;20213;-92
2022/11/21 10:19:03;;;;;;;13.73;4.47;;;9.90;91.40;;;;;;4968044;28;20230;-94
2022/11/21 10:21:57;;;;;;;14.03;5.37;;;9.90;91.40;;;;;;4901664;29;20246;-94
2022/11/21 10:24:41;;;;;;;10.90;4.40;;;10.00;91.00;;;;;;4921228;29;20208;-92
2022/11/21 10:27:17;;;;;;;11.73;4.13;;;10.00;91.10;;;;;;4916909;29;20227;-93
2022/11/21 10:29:52;;;;;;;17.37;5.57;;;10.00;91.20;;;;;;4917952;29;20234;-93
2022/11/21 10:32:27;;;;;;;20.73;6.40;;;10.10;91.30;;;;;;4930447;28;20221;-92
2022/11/21 10:35:01;;;;;;;16.97;5.73;;;10.20;91.30;;;;;;4974560;28;20211;-93
2022/11/21 10:37:37;;;;;;;20.90;6.20;;;10.20;91.30;;;;;;4979579;28;20734;-94
2022/11/21 10:40:19;;;;;;;17.10;6.83;;;10.20;91.10;;;;;;4977125;28;20206;-92
2022/11/21 10:42:55;;;;;;;21.20;7.30;;;10.30;90.80;;;;;;4973257;28;20234;-93
2022/11/21 10:45:22;;;;;;;18.90;6.90;;;10.30;90.80;;;;;;4979310;28;20236;-93
2022/11/21 10:47:57;;;;;;;16.63;6.87;;;10.30;90.60;;;;;;4977508;28;20217;-94
2022/11/21 10:50:41;;;;;;;19.10;7.90;;;10.30;90.70;;;;;;4979215;28;20575;-93
2022/11/21 10:56:07;;;;;;;21.60;10.30;;;10.30;90.90;;;;;;4972596;28;20210;-94
2022/11/21 10:58:43;;;;;;;22.93;9.43;;;10.30;90.90;;;;;;4975195;28;20259;-93
2022/11/21 11:01:25;;;;;;;20.07;9.83;;;10.30;91.00;;;;;;4972830;28;20240;-92
2022/11/21 11:04:16;;;;;;;19.97;11.13;;;10.30;91.00;;;;;;4976203;28;20230;-93
2022/11/21 11:06:48;;;;;;;22.90;10.67;;;10.40;91.10;;;;;;4970425;28;20206;-92
2022/11/21 11:09:28;;;;;;;17.33;10.40;;;10.40;91.10;;;;;;4980748;28;20225;-93
2022/11/21 11:13:32;;;;;;;21.30;10.43;;;10.40;91.20;;;;;;4978570;28;20198;-94
2022/11/21 11:15:24;;;;;;;24.00;11.70;;;10.40;91.10;;;;;;4974071;28;20308;-93
2022/11/21 11:17:58;;;;;;;24.27;12.17;;;10.40;90.80;;;;;;4981297;28;20213;-94
2022/11/21 11:20:40;;;;;;;24.60;12.40;;;10.40;90.80;;;;;;4971268;28;20210;-94
2022/11/21 11:23:27;;;;;;;23.63;13.70;;;10.40;90.90;;;;;;4971127;28;20233;-96
2022/11/21 11:25:57;;;;;;;25.53;13.27;;;10.40;90.90;;;;;;4981117;28;20243;-95
2022/11/21 11:28:25;;;;;;;22.80;12.70;;;10.40;90.80;;;;;;4975769;28;20213;-94
2022/11/21 11:30:55;;;;;;;29.47;13.93;;;10.50;90.80;;;;;;4974699;28;20281;-96
2022/11/21 11:33:38;;;;;;;24.87;12.30;;;10.40;90.90;;;;;;4963275;28;20215;-93
2022/11/21 11:36:25;;;;;;;21.53;11.47;;;10.40;91.10;;;;;;4977299;28;20203;-95
2022/11/21 11:38:57;;;;;;;23.37;10.73;;;10.40;91.30;;;;;;4978838;28;20241;-95
2022/11/21 11:47:44;;;;;;;20.83;9.20;;;10.40;91.00;;;;;;4963271;28;20981;-92
2022/11/21 11:50:19;;;;;;;18.63;8.43;;;10.40;91.10;;;;;;4973327;28;20216;-95
2022/11/21 11:53:01;;;;;;;22.17;10.17;;;10.40;91.10;;;;;;4961341;28;20198;-94
2022/11/21 11:55:36;;;;;;;17.23;8.83;;;10.40;91.20;;;;;;4976539;28;20222;-96
2022/11/21 11:58:07;;;;;;;22.13;8.87;;;10.40;91.30;;;;;;4974606;28;20204;-95
2022/11/21 12:00:42;;;;;;;22.10;10.13;;;10.40;91.40;;;;;;4976368;28;20233;-94
2022/11/21 12:03:15;;;;;;;18.80;9.07;;;10.40;91.40;;;;;;4968648;28;20235;-94
2022/11/21 12:05:56;;;;;;;19.30;8.60;;;10.40;91.60;;;;;;4982005;28;20193;-96
2022/11/21 12:08:37;;;;;;;15.40;7.17;;;10.40;91.60;;;;;;4975285;28;20229;-94
2022/11/21 12:14:11;;;;;;;21.73;9.03;;;10.40;91.70;;;;;;4972183;28;20253;-94
2022/11/21 12:16:40;;;;;;;19.07;7.73;;;10.40;91.80;;;;;;4977033;28;20219;-93
2022/11/21 12:19:14;;;;;;;15.63;7.33;;;10.40;92.00;;;;;;4980759;28;20207;-92
2022/11/21 12:21:46;;;;;;;23.40;8.70;;;10.40;92.20;;;;;;4979415;28;20241;-91
2022/11/21 12:24:19;;;;;;;18.63;8.37;;;10.40;92.20;;;;;;4981164;28;20404;-92
2022/11/21 12:26:59;;;;;;;16.77;8.23;;;10.50;92.40;;;;;;4977977;28;20206;-93
2022/11/21 12:29:34;;;;;;;14.43;6.67;;;10.50;92.20;;;;;;4980742;28;20686;-94
2022/11/21 12:32:15;;;;;;;14.27;7.23;;;10.50;92.60;;;;;;4984626;28;20725;-93
2022/11/21 12:35:08;;;;;;;16.93;7.97;;;10.50;92.70;;;;;;4985976;28;20306;-92
2022/11/21 12:37:44;;;;;;;18.77;8.17;;;10.60;92.70;;;;;;4980940;28;20212;-95
2022/11/21 12:40:41;;;;;;;15.60;8.40;;;10.60;92.60;;;;;;4984209;28;20214;-93
2022/11/21 12:43:24;;;;;;;17.97;7.70;;;10.60;92.90;;;;;;4975455;28;20234;-94
2022/11/21 12:45:59;;;;;;;30.90;10.47;;;10.60;92.90;;;;;;4974162;28;20230;-93
2022/11/21 12:55:19;;;;;;;18.67;8.87;;;10.70;93.10;;;;;;4951797;28;20206;-94
2022/11/21 12:58:13;;;;;;;22.67;9.07;;;10.80;93.20;;;;;;4914710;29;20310;-94
2022/11/21 13:00:55;;;;;;;24.23;9.13;;;10.80;93.20;;;;;;4956227;29;20263;-94
2022/11/21 13:03:55;;;;;;;22.03;8.70;;;10.80;93.10;;;;;;4972528;28;20257;-93
2022/11/21 13:06:28;;;;;;;16.13;7.83;;;10.90;93.20;;;;;;4969249;28;20238;-94
2022/11/21 13:08:58;;;;;;;19.73;7.67;;;10.90;93.10;;;;;;4975788;28;20203;-93
2022/11/21 13:14:31;;;;;;;28.10;10.27;;;11.00;93.20;;;;;;4974465;28;20415;-92
2022/11/21 13:17:11;;;;;;;29.77;10.67;;;11.00;93.10;;;;;;4961249;28;20234;-92
2022/11/21 13:19:46;;;;;;;25.50;9.77;;;11.10;93.10;;;;;;4970613;28;20314;-94
2022/11/21 13:22:46;;;;;;;17.77;9.07;;;11.10;93.10;;;;;;4972922;28;20295;-95
2022/11/21 13:25:38;;;;;;;20.60;8.83;;;11.10;93.20;;;;;;4963515;28;20213;-93
2022/11/21 13:28:34;;;;;;;17.00;8.33;;;11.20;93.10;;;;;;4961414;28;20293;-93
2022/11/21 13:31:27;;;;;;;14.17;7.87;;;11.20;93.20;;;;;;4970233;28;20230;-93
2022/11/21 13:33:57;;;;;;;17.30;8.47;;;11.30;93.20;;;;;;4973344;28;20199;-93
2022/11/21 13:36:43;;;;;;;22.57;9.30;;;11.20;93.00;;;;;;4974143;28;20210;-92
2022/11/21 13:39:28;;;;;;;17.70;7.70;;;11.30;93.00;;;;;;4971922;28;20203;-93
2022/11/21 13:45:42;;;;;;;21.93;8.97;;;11.40;93.00;;;;;;4972166;28;20210;-93
2022/11/21 13:48:53;;;;;;;25.00;10.33;;;11.40;92.90;;;;;;4970816;28;20226;-94
2022/11/21 13:51:52;;;;;;;22.17;9.60;;;11.50;92.70;;;;;;4974549;28;20279;-95
2022/11/21 13:54:53;;;;;;;21.40;8.83;;;11.50;92.70;;;;;;4971490;28;20211;-92
2022/11/21 13:57:51;;;;;;;19.70;7.80;;;11.50;92.70;;;;;;4929183;28;20249;-92
2022/11/21 14:00:49;;;;;;;15.40;8.27;;;11.50;92.60;;;;;;4973885;28;20214;-93
2022/11/21 14:04:01;;;;;;;20.33;8.30;;;11.50;92.50;;;;;;4972323;28;20231;-93
2022/11/21 14:06:44;;;;;;;26.20;9.67;;;11.60;92.70;;;;;;4965839;28;21005;-93
2022/11/21 14:09:27;;;;;;;15.97;7.57;;;11.60;92.60;;;;;;4970165;28;20746;-93
2022/11/21 14:11:58;;;;;;;22.10;8.03;;;11.60;92.60;;;;;;4971137;28;20696;-93
2022/11/21 14:14:40;;;;;;;18.60;6.70;;;11.60;92.50;;;;;;4991958;28;20206;-93
2022/11/21 14:17:28;;;;;;;14.63;6.10;;;11.70;92.50;;;;;;4979324;28;20297;-93
2022/11/21 14:20:09;;;;;;;16.27;7.27;;;11.60;92.30;;;;;;4974219;28;20191;-93
2022/11/21 14:22:42;;;;;;;11.90;5.90;;;11.70;92.30;;;;;;4966333;28;20227;-92
2022/11/21 14:25:21;;;;;;;16.17;5.13;;;11.60;92.20;;;;;;4961379;28;20203;-93
2022/11/21 14:27:54;;;;;;;16.37;6.00;;;11.60;92.20;;;;;;4972566;28;20218;-92
2022/11/21 14:30:40;;;;;;;14.90;4.77;;;11.70;92.20;;;;;;4973010;28;20240;-93
2022/11/21 14:33:36;;;;;;;26.40;7.43;;;11.70;92.10;;;;;;4969784;28;20303;-93
2022/11/21 14:36:07;;;;;;;19.37;6.43;;;11.70;92.00;;;;;;4972716;28;20279;-94
2022/11/21 14:38:42;;;;;;;12.30;4.23;;;11.70;92.00;;;;;;4972495;28;20206;-93
2022/11/21 14:41:27;;;;;;;18.97;5.43;;;11.70;92.10;;;;;;4973830;28;20226;-93
2022/11/21 14:44:25;;;;;;;13.23;5.43;;;11.70;92.10;;;;;;4973387;28;20231;-92
2022/11/21 14:47:11;;;;;;;14.67;4.77;;;11.70;92.10;;;;;;4976695;28;20210;-93
2022/11/21 14:50:02;;;;;;;10.00;4.23;;;11.70;91.90;;;;;;4993679;28;20207;-94
2022/11/21 14:52:32;;;;;;;13.73;4.03;;;11.80;92.00;;;;;;4994166;28;20207;-96
2022/11/21 14:55:23;;;;;;;14.30;4.87;;;11.70;91.90;;;;;;4991371;28;20211;-95
2022/11/21 14:58:00;;;;;;;20.03;5.20;;;11.70;92.20;;;;;;4975933;28;20207;-93
2022/11/21 15:00:35;;;;;;;11.33;4.37;;;11.70;92.00;;;;;;4961554;28;20199;-93
2022/11/21 15:03:30;;;;;;;17.60;5.47;;;11.70;92.00;;;;;;4977941;28;20250;-93
2022/11/21 15:06:02;;;;;;;13.23;5.07;;;11.70;92.10;;;;;;4978209;28;20206;-93
2022/11/21 15:08:30;;;;;;;11.00;4.37;;;11.70;91.90;;;;;;4977100;28;20665;-93
2022/11/21 15:11:07;;;;;;;13.07;4.80;;;11.80;92.00;;;;;;4975553;28;20790;-93
2022/11/21 15:13:35;;;;;;;13.57;4.23;;;11.70;91.90;;;;;;4975783;28;20202;-93
2022/11/21 15:16:04;;;;;;;16.90;5.07;;;11.80;91.90;;;;;;4970908;28;20615;-94
2022/11/21 15:18:33;;;;;;;11.93;3.73;;;11.80;92.10;;;;;;4965246;28;20747;-93
2022/11/21 15:21:04;;;;;;;16.20;5.17;;;11.80;92.10;;;;;;4958336;28;20195;-94
2022/11/21 15:23:38;;;;;;;13.73;4.53;;;11.80;92.10;;;;;;4974345;28;20245;-93
2022/11/21 15:26:30;;;;;;;14.87;5.07;;;11.80;92.10;;;;;;4966841;28;20225;-93
2022/11/21 15:28:59;;;;;;;15.50;6.00;;;11.80;92.20;;;;;;4970897;28;20200;-93
2022/11/21 15:31:31;;;;;;;15.03;5.23;;;11.80;92.10;;;;;;4969150;28;20207;-94
2022/11/21 15:34:00;;;;;;;15.40;5.57;;;11.80;92.30;;;;;;4970553;28;20219;-93
2022/11/21 15:36:28;;;;;;;14.43;5.07;;;11.80;92.20;;;;;;4962110;28;20546;-92
2022/11/21 15:39:02;;;;;;;13.70;5.20;;;11.80;92.10;;;;;;4964115;28;20207;-93
2022/11/21 15:41:35;;;;;;;20.50;6.27;;;11.90;92.20;;;;;;4970242;28;20226;-93
2022/11/21 15:44:27;;;;;;;11.67;5.07;;;11.90;92.10;;;;;;4969132;28;20242;-93
2022/11/21 15:46:55;;;;;;;15.97;5.53;;;11.80;92.10;;;;;;4971765;28;20291;-93
2022/11/21 15:49:24;;;;;;;14.57;5.10;;;11.80;92.10;;;;;;4958629;29;20200;-94
2022/11/21 15:51:55;;;;;;;14.17;5.13;;;11.80;92.10;;;;;;4976640;28;20218;-93
2022/11/21 15:54:30;;;;;;;17.40;4.93;;;11.80;92.20;;;;;;4968893;28;20254;-93
2022/11/21 15:57:01;;;;;;;14.20;6.17;;;11.80;92.40;;;;;;4969426;28;20190;-95
2022/11/21 15:59:31;;;;;;;23.23;7.50;;;11.80;92.30;;;;;;4977598;28;20219;-92
2022/11/21 16:02:10;;;;;;;17.13;6.33;;;11.80;92.20;;;;;;4977948;28;20215;-93
2022/11/21 16:04:39;;;;;;;9.77;4.50;;;11.80;92.40;;;;;;4985334;28;20202;-93
2022/11/21 16:07:09;;;;;;;13.77;5.63;;;11.80;92.10;;;;;;4981702;28;20266;-93
2022/11/21 16:09:45;;;;;;;10.17;4.90;;;11.80;92.20;;;;;;4987910;28;20211;-93
2022/11/21 16:12:17;;;;;;;16.67;6.60;;;11.80;92.20;;;;;;4981148;28;20210;-93
2022/11/21 16:14:48;;;;;;;14.40;4.77;;;11.80;92.10;;;;;;4982797;28;20203;-94
2022/11/21 16:17:15;;;;;;;17.77;5.70;;;11.80;92.10;;;;;;4966921;28;20577;-95
2022/11/21 16:19:44;;;;;;;14.47;5.73;;;11.80;92.00;;;;;;4977660;28;20683;-94
2022/11/21 16:22:15;;;;;;;13.33;4.80;;;11.70;92.10;;;;;;4977313;28;20726;-95
2022/11/21 16:24:45;;;;;;;16.57;6.13;;;11.70;92.10;;;;;;4975993;28;20683;-95
2022/11/21 16:27:15;;;;;;;11.50;4.87;;;11.70;92.10;;;;;;4970187;28;20203;-96
2022/11/21 16:29:47;;;;;;;21.33;6.07;;;11.70;92.10;;;;;;4974535;28;20283;-94
2022/11/21 16:32:20;;;;;;;14.10;4.07;;;11.70;92.00;;;;;;4975258;28;20211;-95
2022/11/21 16:34:51;;;;;;;14.83;5.37;;;11.70;92.10;;;;;;4975410;28;20210;-94
2022/11/21 16:37:22;;;;;;;14.50;4.57;;;11.60;92.00;;;;;;4975616;28;20246;-94
2022/11/21 16:39:50;;;;;;;14.27;5.93;;;11.60;92.20;;;;;;4976307;28;20202;-95
2022/11/21 16:42:19;;;;;;;13.13;4.63;;;11.60;92.10;;;;;;4975272;28;20297;-91
2022/11/21 16:44:52;;;;;;;13.50;5.67;;;11.60;92.10;;;;;;4973228;28;20202;-94
2022/11/21 16:47:19;;;;;;;11.83;4.27;;;11.60;92.00;;;;;;4975209;28;20207;-94
2022/11/21 16:49:51;;;;;;;13.20;5.10;;;11.60;92.10;;;;;;4974861;28;20210;-94
2022/11/21 16:52:24;;;;;;;13.07;4.53;;;11.60;92.20;;;;;;4972890;28;20280;-93
2022/11/21 16:55:00;;;;;;;17.53;5.90;;;11.60;92.30;;;;;;4967616;28;20195;-94
2022/11/21 16:57:32;;;;;;;11.33;4.13;;;11.60;92.30;;;;;;4971188;28;20215;-93
2022/11/21 17:00:02;;;;;;;19.80;5.83;;;11.60;92.30;;;;;;4967482;28;20702;-93
2022/11/21 17:02:32;;;;;;;12.07;4.57;;;11.50;92.20;;;;;;4968650;28;20199;-92
2022/11/21 17:04:59;;;;;;;15.50;5.67;;;11.50;92.20;;;;;;4969277;28;20298;-94
2022/11/21 17:07:31;;;;;;;15.43;5.50;;;11.50;92.10;;;;;;4972819;28;20293;-94
2022/11/21 17:10:01;;;;;;;12.90;4.63;;;11.50;92.30;;;;;;4963104;28;20332;-95
2022/11/21 17:12:37;;;;;;;15.90;5.50;;;11.50;92.20;;;;;;4974615;28;20211;-94
2022/11/21 17:15:07;;;;;;;9.83;3.80;;;11.40;92.30;;;;;;4972341;28;20206;-93
2022/11/21 17:17:41;;;;;;;8.90;4.00;;;11.50;92.30;;;;;;4971037;28;20934;-93
2022/11/21 17:20:14;;;;;;;11.40;3.40;;;11.50;92.20;;;;;;4983534;28;20203;-93
2022/11/21 17:22:43;;;;;;;11.20;3.60;;;11.40;92.20;;;;;;4984941;28;20262;-94
2022/11/21 17:25:15;;;;;;;10.37;3.67;;;11.40;92.20;;;;;;4989314;28;20206;-93
2022/11/21 17:28:00;;;;;;;11.57;3.93;;;11.40;92.30;;;;;;4972469;28;20207;-95
2022/11/21 17:30:31;;;;;;;11.10;4.03;;;11.40;92.50;;;;;;4987007;28;20199;-94
2022/11/21 17:33:07;;;;;;;13.67;4.70;;;11.40;92.30;;;;;;4987736;28;20681;-94
2022/11/21 17:35:38;;;;;;;11.50;3.83;;;11.30;92.50;;;;;;4988397;28;20198;-94
2022/11/21 17:38:20;;;;;;;10.23;3.23;;;11.30;92.30;;;;;;4989344;28;20203;-93
2022/11/21 17:41:00;;;;;;;14.47;4.87;;;11.30;92.40;;;;;;4992374;28;20238;-95
2022/11/21 17:43:35;;;;;;;13.03;3.20;;;11.30;92.50;;;;;;4989935;28;20251;-95
2022/11/21 17:46:13;;;;;;;11.93;4.33;;;11.30;92.60;;;;;;4985855;28;20317;-92
2022/11/21 17:48:43;;;;;;;7.67;3.30;;;11.30;92.60;;;;;;4964297;28;20199;-93
2022/11/21 17:51:14;;;;;;;8.53;3.73;;;11.20;92.50;;;;;;4971793;28;20249;-93
2022/11/21 17:53:49;;;;;;;9.37;3.37;;;11.20;92.40;;;;;;4976319;28;20910;-95
2022/11/21 17:56:20;;;;;;;9.60;3.13;;;11.20;92.50;;;;;;4973647;28;20217;-93
2022/11/21 17:58:53;;;;;;;10.77;3.83;;;11.20;92.50;;;;;;4973585;28;20211;-95
2022/11/21 18:01:20;;;;;;;13.20;3.97;;;11.20;92.50;;;;;;4973212;28;20541;-93
2022/11/21 18:03:55;;;;;;;11.73;3.97;;;11.20;92.30;;;;;;4973333;28;20204;-94
2022/11/21 18:06:28;;;;;;;12.60;4.10;;;11.10;92.40;;;;;;4978169;28;20206;-94
2022/11/21 18:09:00;;;;;;;12.63;3.33;;;11.10;92.40;;;;;;4974376;28;20318;-93
2022/11/21 18:11:36;;;;;;;10.07;3.13;;;11.10;92.20;;;;;;4982303;28;20219;-93
2022/11/21 18:14:07;;;;;;;9.90;3.23;;;11.10;92.30;;;;;;4983481;28;20291;-93
2022/11/21 18:16:36;;;;;;;10.27;3.17;;;11.00;92.30;;;;;;4978462;28;20326;-94
2022/11/21 18:19:05;;;;;;;10.83;3.40;;;11.00;92.10;;;;;;4960860;29;20246;-93
2022/11/21 18:24:22;;;;;;;9.87;3.13;;;10.90;92.10;;;;;;4979335;28;20234;-93
2022/11/21 18:27:04;;;;;;;14.50;3.93;;;10.90;92.20;;;;;;4982620;28;20305;-94
2022/11/21 18:32:34;;;;;;;13.17;3.40;;;10.90;93.10;;;;;;4974995;28;20213;-94
2022/11/21 18:35:05;;;;;;;12.37;3.50;;;10.90;92.60;;;;;;4975922;28;20202;-93
2022/11/21 18:37:36;;;;;;;15.40;3.57;;;10.80;92.60;;;;;;4983095;28;20218;-93
2022/11/21 18:40:12;;;;;;;9.93;3.07;;;10.80;92.70;;;;;;4973298;28;20232;-95
2022/11/21 18:42:47;;;;;;;11.20;3.90;;;10.80;92.90;;;;;;4975220;28;20264;-95
2022/11/21 18:45:25;;;;;;;9.37;3.70;;;10.70;93.00;;;;;;4972916;28;20214;-94
2022/11/21 18:47:55;;;;;;;10.43;3.60;;;10.80;93.00;;;;;;4975295;28;20214;-96
2022/11/21 18:50:25;;;;;;;10.23;3.53;;;10.80;93.00;;;;;;4978832;28;20261;-92
2022/11/21 18:53:04;;;;;;;10.50;3.67;;;10.70;93.10;;;;;;4991757;28;20486;-95
2022/11/21 18:55:32;;;;;;;8.40;2.60;;;10.70;93.10;;;;;;4990090;28;20206;-95
2022/11/21 18:58:01;;;;;;;12.47;3.07;;;10.70;93.20;;;;;;4980799;28;20213;-95
2022/11/21 19:00:35;;;;;;;7.87;3.30;;;10.70;93.40;;;;;;4981739;28;20230;-95
2022/11/21 19:03:11;;;;;;;14.97;4.67;;;10.70;93.60;;;;;;4977877;28;20226;-92
2022/11/21 19:05:48;;;;;;;9.07;2.80;;;10.70;93.60;;;;;;4979205;28;20203;-95
2022/11/21 19:08:17;;;;;;;13.63;4.57;;;10.70;93.90;;;;;;4977790;28;20208;-94
2022/11/21 19:10:46;;;;;;;12.77;3.43;;;10.70;93.80;;;;;;4978338;28;20205;-93
2022/11/21 19:13:17;;;;;;;13.83;4.77;;;10.70;93.80;;;;;;4975499;28;20233;-95
2022/11/21 19:15:56;;;;;;;9.53;4.00;;;10.70;93.80;;;;;;4979718;28;20202;-92
2022/11/21 19:18:24;;;;;;;12.43;3.70;;;10.70;93.80;;;;;;4979299;28;20667;-95
2022/11/21 19:21:00;;;;;;;12.03;4.17;;;10.70;93.80;;;;;;4977557;28;20215;-95
2022/11/21 19:23:31;;;;;;;9.23;3.60;;;10.70;94.00;;;;;;4965550;28;20229;-93
2022/11/21 19:26:02;;;;;;;9.43;3.67;;;10.70;94.60;;;;;;4973981;28;20194;-94
2022/11/21 19:28:34;;;;;;;7.17;3.30;;;10.70;94.20;;;;;;4974789;28;20215;-95
2022/11/21 19:31:17;;;;;;;15.60;4.97;;;10.80;94.30;;;;;;4974404;28;20210;-92
2022/11/21 19:33:46;;;;;;;8.30;3.50;;;10.80;94.40;;;;;;4976034;28;20241;-95
2022/11/21 19:36:16;;;;;;;7.47;3.43;;;10.80;94.40;;;;;;4980129;28;20203;-95
2022/11/21 19:38:48;;;;;;;5.63;2.97;;;10.80;94.30;;;;;;4981171;28;20213;-93
2022/11/21 19:41:29;;;;;;;11.60;3.97;;;10.80;94.40;;;;;;4987748;28;20235;-94